Time;durP1;ratioP1;P1;durP2;ratioP2;P2;SDS_P1;SDS_P2;PMS_P1;PMS_P2;Temp;Humidity;BMP_temperature;BMP_pressure;BME280_temperature;BME280_humidity;BME280_pressure;Samples;Min_cycle;Max_cycle;Signal;HPM_P1;HPM_P2
2022/03/01 00:02:17;;;;;;;18.17;2.65;;;;;;;-149.78;100.00;50385.38;4739313;30;20106;-71
2022/03/01 00:04:42;;;;;;;17.23;3.40;;;;;;;-149.78;100.00;50354.09;4755598;30;20051;-72
2022/03/01 00:07:08;;;;;;;20.10;2.70;;;;;;;-149.78;100.00;50377.56;4755359;30;20043;-72
2022/03/01 00:09:35;;;;;;;20.50;2.83;;;;;;;-149.78;100.00;50375.63;4754211;30;20055;-72
2022/03/01 00:12:01;;;;;;;12.85;3.60;;;;;;;-149.78;100.00;50389.31;4769917;30;20036;-72
2022/03/01 00:14:26;;;;;;;24.13;4.10;;;;;;;-149.78;100.00;50373.66;4772349;30;20116;-72
2022/03/01 00:16:54;;;;;;;17.02;3.08;;;;;;;-149.78;100.00;50389.31;4771963;30;20093;-72
2022/03/01 00:19:20;;;;;;;24.13;2.97;;;;;;;-149.78;100.00;50397.13;4772012;30;20032;-72
2022/03/01 00:21:46;;;;;;;20.85;3.03;;;;;;;-149.78;100.00;50385.38;4771928;30;20070;-72
2022/03/01 00:24:12;;;;;;;16.23;2.75;;;;;;;-149.78;100.00;50354.09;4766996;30;20036;-72
2022/03/01 00:26:38;;;;;;;11.73;2.05;;;;;;;-149.78;100.00;50404.94;4723632;30;20451;-72
2022/03/01 00:29:05;;;;;;;14.25;3.05;;;;;;;-149.78;100.00;50377.56;4753864;30;20051;-72
2022/03/01 00:31:31;;;;;;;13.50;2.83;;;;;;;-149.78;100.00;50379.53;4754035;30;20036;-72
2022/03/01 00:33:56;;;;;;;22.38;3.45;;;;;;;-149.78;100.00;50373.66;4754165;30;20043;-72
2022/03/01 00:36:23;;;;;;;19.05;2.97;;;;;;;-149.78;100.00;50385.38;4753679;30;20071;-72
2022/03/01 00:38:48;;;;;;;21.58;3.40;;;;;;;-149.78;100.00;50369.75;4753855;30;20531;-69
2022/03/01 00:41:14;;;;;;;20.45;2.80;;;;;;;-149.78;100.00;50397.13;4753770;30;20168;-69
2022/03/01 00:43:40;;;;;;;16.55;3.80;;;;;;;-149.78;100.00;50379.53;4753566;30;20517;-69
2022/03/01 00:46:06;;;;;;;13.00;2.75;;;;;;;-149.78;100.00;50408.84;4753551;30;20127;-69
2022/03/01 00:48:32;;;;;;;12.13;2.70;;;;;;;-149.78;100.00;50412.78;4737821;30;20374;-69
2022/03/01 00:50:58;;;;;;;24.55;3.70;;;;;;;-149.78;100.00;50373.66;4753583;30;20037;-69
2022/03/01 00:53:24;;;;;;;13.45;3.63;;;;;;;-149.78;100.00;50381.47;4737619;30;20478;-69
2022/03/01 00:55:49;;;;;;;14.13;3.05;;;;;;;-149.78;100.00;50381.47;4753522;30;20493;-69
2022/03/01 00:58:15;;;;;;;16.90;4.15;;;;;;;-149.78;100.00;50350.19;4753469;30;20764;-69
2022/03/01 01:00:41;;;;;;;27.42;4.10;;;;;;;-149.78;100.00;50404.94;4738566;30;20457;-69
2022/03/01 01:03:06;;;;;;;28.10;3.50;;;;;;;-149.78;100.00;50426.47;4771265;30;20036;-69
2022/03/01 01:05:32;;;;;;;22.65;3.78;;;;;;;-149.78;100.00;50377.56;4771189;30;20556;-69
2022/03/01 01:07:57;;;;;;;23.75;3.35;;;;;;;-149.78;100.00;50424.50;4771293;30;20072;-69
2022/03/01 01:10:24;;;;;;;24.55;3.97;;;;;;;-149.78;100.00;50367.78;4771108;30;20024;-69
2022/03/01 01:12:49;;;;;;;18.05;3.67;;;;;;;-149.78;100.00;50393.22;4771095;30;20074;-69
2022/03/01 01:15:17;;;;;;;15.75;3.65;;;;;;;-149.78;100.00;50389.31;4734354;30;1128789;-69
2022/03/01 01:17:43;;;;;;;20.95;3.55;;;;;;;-149.78;100.00;50422.56;4772071;30;20040;-69
2022/03/01 01:20:10;;;;;;;23.23;3.90;;;;;;;-149.78;100.00;50381.47;4771889;30;20138;-69
2022/03/01 01:22:39;;;;;;;18.75;3.70;;;;;;;-149.78;100.00;50401.03;4771985;30;20390;-70
2022/03/01 01:25:07;;;;;;;23.65;6.03;;;;;;;-149.78;100.00;50377.56;4760806;30;20050;-68
2022/03/01 01:27:33;;;;;;;18.55;4.07;;;;;;;-149.78;100.00;50385.38;4754049;30;20072;-69
2022/03/01 01:29:59;;;;;;;12.50;3.25;;;;;;;-149.78;100.00;50420.59;4754088;30;20377;-69
2022/03/01 01:32:25;;;;;;;22.38;3.65;;;;;;;-149.78;100.00;50397.13;4753892;30;20040;-69
2022/03/01 01:34:52;;;;;;;21.95;4.25;;;;;;;-149.78;100.00;50412.78;4753977;30;20433;-69
2022/03/01 01:37:18;;;;;;;28.48;4.68;;;;;;;-149.78;100.00;50408.84;4753884;30;20397;-69
2022/03/01 01:39:44;;;;;;;24.67;3.55;;;;;;;-149.78;100.00;50403.00;4752562;30;20063;-69
2022/03/01 01:42:10;;;;;;;17.20;3.22;;;;;;;-149.78;100.00;50377.56;4753783;30;20075;-69
2022/03/01 01:44:35;;;;;;;25.35;4.28;;;;;;;-149.78;100.00;50393.22;4753760;30;20040;-69
2022/03/01 01:47:01;;;;;;;25.27;4.28;;;;;;;-149.78;100.00;50385.38;4753715;30;20393;-69
2022/03/01 01:49:27;;;;;;;16.88;4.20;;;;;;;-149.78;100.00;50412.78;4752471;30;20044;-69
2022/03/01 01:51:54;;;;;;;24.35;4.15;;;;;;;-149.78;100.00;50424.50;4753735;30;20044;-69
2022/03/01 01:54:19;;;;;;;20.33;3.47;;;;;;;-149.78;100.00;50403.00;4751929;30;20509;-69
2022/03/01 01:56:45;;;;;;;21.52;3.70;;;;;;;-149.78;100.00;50379.53;4753549;30;20086;-69
2022/03/01 01:59:11;;;;;;;20.33;3.90;;;;;;;-149.78;100.00;50424.50;4758299;30;20043;-69
2022/03/01 02:01:37;;;;;;;23.23;5.20;;;;;;;-149.78;100.00;50369.75;4755342;30;20044;-69
2022/03/01 02:04:03;;;;;;;19.15;3.28;;;;;;;-149.78;100.00;50361.91;4757387;30;20114;-69
2022/03/01 02:06:29;;;;;;;26.30;3.80;;;;;;;-149.78;100.00;50389.31;4740400;30;20044;-69
2022/03/01 02:08:54;;;;;;;14.63;4.05;;;;;;;-149.78;100.00;50451.88;4771040;30;20063;-69
2022/03/01 02:11:20;;;;;;;24.17;4.72;;;;;;;-149.78;100.00;50403.00;4770947;30;20084;-69
2022/03/01 02:13:46;;;;;;;14.35;3.75;;;;;;;-149.78;100.00;50436.25;4770294;30;20051;-69
2022/03/01 02:16:12;;;;;;;19.63;3.83;;;;;;;-149.78;100.00;50408.84;4770876;30;20485;-69
2022/03/01 02:18:38;;;;;;;17.98;4.32;;;;;;;-149.78;100.00;50424.50;4758377;30;20176;-69
2022/03/01 02:21:04;;;;;;;21.63;4.72;;;;;;;-149.78;100.00;50397.13;4770240;30;20040;-69
2022/03/01 02:23:30;;;;;;;28.20;4.50;;;;;;;-149.78;100.00;50397.13;4770605;30;20122;-69
2022/03/01 02:25:55;;;;;;;23.63;4.40;;;;;;;-149.78;100.00;50428.41;4770925;30;20040;-69
2022/03/01 02:28:21;;;;;;;24.67;5.03;;;;;;;-149.78;100.00;50389.31;4754509;30;20076;-69
2022/03/01 02:30:47;;;;;;;20.00;6.15;;;;;;;-149.78;100.00;50397.13;4769694;30;20043;-69
2022/03/01 02:33:13;;;;;;;27.15;5.38;;;;;;;-149.78;100.00;50428.41;4770760;30;20507;-69
2022/03/01 02:35:38;;;;;;;22.38;4.97;;;;;;;-149.78;100.00;50414.72;4770390;30;20044;-69
2022/03/01 02:38:05;;;;;;;23.80;4.88;;;;;;;-149.78;100.00;50451.88;4769436;30;20046;-69
2022/03/01 02:40:31;;;;;;;21.08;4.57;;;;;;;-149.78;100.00;50436.25;4770524;30;20478;-69
2022/03/01 02:42:57;;;;;;;26.75;4.85;;;;;;;-149.78;100.00;50404.94;4754845;30;20071;-68
2022/03/01 02:45:23;;;;;;;30.45;5.25;;;;;;;-149.78;100.00;50406.91;4770400;30;20166;-69
2022/03/01 02:47:49;;;;;;;20.40;5.50;;;;;;;-149.78;100.00;50416.69;4770688;30;20043;-69
2022/03/01 02:50:16;;;;;;;19.88;4.40;;;;;;;-149.78;100.00;50412.78;4769302;30;20377;-69
2022/03/01 02:52:42;;;;;;;19.23;4.78;;;;;;;-149.78;100.00;50416.69;4770147;30;20046;-68
2022/03/01 02:55:09;;;;;;;29.80;5.22;;;;;;;-149.78;100.00;50432.31;4756273;30;20067;-69
2022/03/01 02:57:35;;;;;;;33.60;4.80;;;;;;;-149.78;100.00;50365.84;4737121;30;20400;-69
2022/03/01 03:00:00;;;;;;;25.70;4.88;;;;;;;-149.78;100.00;50432.31;4752524;30;20047;-69
2022/03/01 03:02:26;;;;;;;24.25;4.95;;;;;;;-149.78;100.00;50451.88;4752667;30;20040;-68
2022/03/01 03:04:52;;;;;;;19.20;4.35;;;;;;;-149.78;100.00;50406.91;4752583;30;20452;-69
2022/03/01 03:07:17;;;;;;;20.38;4.60;;;;;;;-149.78;100.00;50418.63;4751264;30;20044;-69
2022/03/01 03:09:45;;;;;;;24.67;5.07;;;;;;;-149.78;100.00;50424.50;4752496;30;20106;-69
2022/03/01 03:12:11;;;;;;;22.45;5.63;;;;;;;-149.78;100.00;50428.41;4751146;30;20044;-69
2022/03/01 03:14:36;;;;;;;20.95;4.13;;;;;;;-149.78;100.00;50410.81;4752208;30;20062;-69
2022/03/01 03:17:03;;;;;;;20.33;5.07;;;;;;;-149.78;100.00;50397.13;4752389;30;20052;-69
2022/03/01 03:19:28;;;;;;;20.88;6.00;;;;;;;-149.78;100.00;50440.16;4752612;30;20393;-69
2022/03/01 03:21:54;;;;;;;22.92;4.20;;;;;;;-149.78;100.00;50447.97;4736468;30;20140;-69
2022/03/01 03:24:19;;;;;;;18.33;3.97;;;;;;;-149.78;100.00;50424.50;4750599;30;20040;-69
2022/03/01 03:29:33;;;;;;;28.83;4.00;;;;;;;-149.78;100.00;50451.88;4794870;24;20074;-69
2022/03/01 03:31:59;;;;;;;21.90;4.78;;;;;;;-149.78;100.00;50403.00;4818867;29;20026;-69
2022/03/01 03:34:25;;;;;;;15.35;3.63;;;;;;;-149.78;100.00;50375.63;4817184;29;20050;-69
2022/03/01 03:36:52;;;;;;;19.83;3.88;;;;;;;-149.78;100.00;50401.03;4813396;29;20126;-69
2022/03/01 03:39:18;;;;;;;19.27;4.10;;;;;;;-149.78;100.00;50444.06;4824116;29;20404;-69
2022/03/01 03:41:44;;;;;;;20.55;4.18;;;;;;;-149.78;100.00;50397.13;4823782;29;20035;-69
2022/03/01 03:44:09;;;;;;;15.40;3.67;;;;;;;-149.78;100.00;50389.31;4819991;29;20549;-69
2022/03/01 03:46:35;;;;;;;25.63;4.80;;;;;;;-149.78;100.00;50412.78;4805886;29;20206;-69
2022/03/01 03:49:01;;;;;;;16.65;3.90;;;;;;;-149.78;100.00;50408.84;4807666;29;20132;-69
2022/03/01 03:51:27;;;;;;;19.92;4.18;;;;;;;-149.78;100.00;50408.84;4807649;29;20395;-69
2022/03/01 03:53:52;;;;;;;14.85;4.07;;;;;;;-149.78;100.00;50401.03;4823852;29;20052;-69
2022/03/01 03:56:18;;;;;;;20.17;4.20;;;;;;;-149.78;100.00;50422.56;4823976;29;20053;-69
2022/03/01 03:58:44;;;;;;;21.15;3.88;;;;;;;-149.78;100.00;50428.41;4823834;29;20076;-69
2022/03/01 04:01:11;;;;;;;20.38;3.58;;;;;;;-149.78;100.00;50420.59;4822753;29;20494;-69
2022/03/01 04:03:37;;;;;;;23.95;4.72;;;;;;;-149.78;100.00;50463.63;4822362;29;20559;-69
2022/03/01 04:06:02;;;;;;;20.00;4.13;;;;;;;-149.78;100.00;50412.78;4823864;29;20145;-69
2022/03/01 04:08:28;;;;;;;15.45;4.35;;;;;;;-149.78;100.00;50451.88;4821955;29;20034;-69
2022/03/01 04:10:56;;;;;;;17.73;3.95;;;;;;;-149.78;100.00;50373.66;4823768;29;20398;-69
2022/03/01 04:13:23;;;;;;;26.20;3.85;;;;;;;-149.78;100.00;50412.78;4823792;29;20042;-69
2022/03/01 04:15:50;;;;;;;17.23;4.70;;;;;;;-149.78;100.00;50408.84;4822600;29;20050;-69
2022/03/01 04:18:16;;;;;;;19.25;3.70;;;;;;;-149.78;100.00;50459.72;4808748;29;20040;-69
2022/03/01 04:20:42;;;;;;;14.18;3.78;;;;;;;-149.78;100.00;50444.06;4826381;29;20038;-69
2022/03/01 04:23:08;;;;;;;14.35;4.15;;;;;;;-149.78;100.00;50440.16;4810623;29;20513;-69
2022/03/01 04:25:34;;;;;;;14.90;3.85;;;;;;;-149.78;100.00;50404.94;4826565;29;20447;-69
2022/03/01 04:28:00;;;;;;;21.75;4.45;;;;;;;-149.78;100.00;50447.97;4826531;29;20058;-69
2022/03/01 04:30:27;;;;;;;20.13;4.07;;;;;;;-149.78;100.00;50463.63;4826672;29;20045;-68
2022/03/01 04:32:54;;;;;;;15.95;3.85;;;;;;;-149.78;100.00;50424.50;4826579;29;20042;-69
2022/03/01 04:35:19;;;;;;;17.92;3.83;;;;;;;-149.78;100.00;50455.81;4825881;29;20038;-69
2022/03/01 04:37:45;;;;;;;24.35;4.22;;;;;;;-149.78;100.00;50459.72;4818298;29;20038;-69
2022/03/01 04:40:13;;;;;;;14.02;3.78;;;;;;;-149.78;100.00;50420.59;4824879;29;20107;-69
2022/03/01 04:42:39;;;;;;;20.00;3.60;;;;;;;-149.78;100.00;50451.88;4810027;29;20482;-69
2022/03/01 04:45:06;;;;;;;15.77;4.15;;;;;;;-149.78;100.00;50416.69;4825932;29;20039;-69
2022/03/01 04:47:32;;;;;;;10.20;3.00;;;;;;;-149.78;100.00;50440.16;4826348;29;20045;-69
2022/03/01 04:49:58;;;;;;;16.05;3.22;;;;;;;-149.78;100.00;50451.88;4820040;29;20046;-68
2022/03/01 04:52:24;;;;;;;10.95;3.53;;;;;;;-149.78;100.00;50424.50;4803553;29;20039;-69
2022/03/01 04:54:50;;;;;;;17.98;3.85;;;;;;;-149.78;100.00;50432.31;4818335;29;20106;-69
2022/03/01 04:57:16;;;;;;;11.63;3.65;;;;;;;-149.78;100.00;50463.63;4826248;29;20042;-69
2022/03/01 04:59:41;;;;;;;15.90;4.43;;;;;;;-149.78;100.00;50479.28;4809482;29;20075;-69
2022/03/01 05:02:07;;;;;;;16.35;3.10;;;;;;;-149.78;100.00;50440.16;4803757;29;20411;-69
2022/03/01 05:04:33;;;;;;;29.50;3.30;;;;;;;-149.78;100.00;50461.66;4815035;29;20529;-68
2022/03/01 05:06:59;;;;;;;14.82;3.15;;;;;;;-149.78;100.00;50432.31;4808137;29;20498;-69
2022/03/01 05:09:24;;;;;;;13.55;3.00;;;;;;;-149.78;100.00;50440.16;4791757;29;20499;-69
2022/03/01 05:11:51;;;;;;;14.95;2.90;;;;;;;-149.78;100.00;50475.34;4817505;29;20081;-69
2022/03/01 05:14:17;;;;;;;21.27;2.97;;;;;;;-149.78;100.00;50436.25;4826070;29;20137;-69
2022/03/01 05:16:44;;;;;;;15.40;2.75;;;;;;;-149.78;100.00;50447.97;4809768;29;20046;-69
2022/03/01 05:19:09;;;;;;;13.27;3.03;;;;;;;-149.78;100.00;50459.72;4826123;29;20062;-69
2022/03/01 05:21:36;;;;;;;12.18;3.00;;;;;;;-149.78;100.00;50436.25;4825830;29;20073;-69
2022/03/01 05:24:02;;;;;;;17.75;3.13;;;;;;;-149.78;100.00;50447.97;4825989;29;20042;-69
2022/03/01 05:26:29;;;;;;;21.90;3.00;;;;;;;-149.78;100.00;50451.88;4825872;29;20042;-69
2022/03/01 05:28:55;;;;;;;18.83;3.53;;;;;;;-149.78;100.00;50426.47;4808783;29;20054;-69
2022/03/01 05:31:20;;;;;;;13.75;3.92;;;;;;;-149.78;100.00;50459.72;4825127;29;20117;-69
2022/03/01 05:33:46;;;;;;;17.50;3.00;;;;;;;-149.78;100.00;50416.69;4825625;29;20046;-69
2022/03/01 05:36:16;;;;;;;10.73;2.80;;;;;;;-149.78;100.00;50451.88;4825738;29;20129;-69
2022/03/01 05:38:43;;;;;;;12.23;3.20;;;;;;;-149.78;100.00;50455.81;4825474;29;20043;-69
2022/03/01 05:41:09;;;;;;;15.98;4.13;;;;;;;-149.78;100.00;50475.34;4825531;29;20526;-69
2022/03/01 05:43:36;;;;;;;11.80;2.97;;;;;;;-149.78;100.00;50469.50;4825602;29;20039;-69
2022/03/01 05:46:02;;;;;;;13.73;3.03;;;;;;;-149.78;100.00;50451.88;4809113;29;20087;-69
2022/03/01 05:48:28;;;;;;;15.15;3.50;;;;;;;-149.78;100.00;50436.25;4825432;29;20046;-69
2022/03/01 05:50:55;;;;;;;16.55;3.42;;;;;;;-149.78;100.00;50467.53;4825389;29;20034;-69
2022/03/01 05:53:21;;;;;;;17.42;2.72;;;;;;;-149.78;100.00;50471.44;4825413;29;20053;-69
2022/03/01 05:55:47;;;;;;;15.52;3.08;;;;;;;-149.78;100.00;50424.50;4825332;29;20065;-69
2022/03/01 05:58:13;;;;;;;12.15;3.05;;;;;;;-149.78;100.00;50471.44;4824975;29;20030;-69
2022/03/01 06:00:38;;;;;;;12.27;2.78;;;;;;;-149.78;100.00;50451.88;4825188;29;20038;-69
2022/03/01 06:03:04;;;;;;;10.48;2.80;;;;;;;-149.78;100.00;50475.34;4824094;29;20046;-68
2022/03/01 06:05:30;;;;;;;10.55;3.08;;;;;;;-149.78;100.00;50465.56;4825224;29;20038;-69
2022/03/01 06:07:56;;;;;;;15.55;2.75;;;;;;;-149.78;100.00;50440.16;4809024;29;20038;-69
2022/03/01 06:10:22;;;;;;;14.68;2.42;;;;;;;-149.78;100.00;50416.69;4825072;29;20398;-69
2022/03/01 06:12:48;;;;;;;13.52;2.55;;;;;;;-149.78;100.00;50489.03;4825023;29;20048;-69
2022/03/01 06:15:14;;;;;;;18.75;3.38;;;;;;;-149.78;100.00;50432.31;4825118;29;20046;-69
2022/03/01 06:17:40;;;;;;;10.32;2.28;;;;;;;-149.78;100.00;50432.31;4824885;29;20049;-69
2022/03/01 06:20:08;;;;;;;17.20;2.65;;;;;;;-149.78;100.00;50483.19;4823929;29;20091;-69
2022/03/01 06:22:34;;;;;;;13.07;2.55;;;;;;;-149.78;100.00;50440.16;4823511;29;20080;-69
2022/03/01 06:25:00;;;;;;;9.50;2.30;;;;;;;-149.78;100.00;50479.28;4798799;29;20058;-69
2022/03/01 06:27:26;;;;;;;7.90;2.53;;;;;;;-149.78;100.00;50467.53;4789434;29;20046;-69
2022/03/01 06:29:53;;;;;;;12.90;2.92;;;;;;;-149.78;100.00;50453.84;4792575;29;20110;-69
2022/03/01 06:32:19;;;;;;;16.98;2.72;;;;;;;-149.78;100.00;50471.44;4794693;29;20049;-69
2022/03/01 06:34:45;;;;;;;14.55;2.53;;;;;;;-149.78;100.00;50451.88;4796122;29;20031;-69
2022/03/01 06:37:14;;;;;;;13.05;1.98;;;;;;;-149.78;100.00;50475.34;4794416;29;20046;-69
2022/03/01 06:39:44;;;;;;;14.43;2.50;;;;;;;-149.78;100.00;50471.44;4788359;29;20034;-69
2022/03/01 06:42:11;;;;;;;8.55;2.40;;;;;;;-149.78;100.00;50483.19;4798884;29;20046;-69
2022/03/01 06:44:37;;;;;;;11.02;2.20;;;;;;;-149.78;100.00;50447.97;4797162;29;20034;-69
2022/03/01 06:47:04;;;;;;;13.80;2.47;;;;;;;-149.78;100.00;50459.72;4799698;29;20046;-69
2022/03/01 06:49:30;;;;;;;9.27;2.08;;;;;;;-149.78;100.00;50500.78;4798550;29;20072;-69
2022/03/01 06:51:56;;;;;;;11.82;2.80;;;;;;;-149.78;100.00;50451.88;4797229;29;20039;-69
2022/03/01 06:54:23;;;;;;;17.70;3.42;;;;;;;-149.78;100.00;50479.28;4794119;29;20038;-69
2022/03/01 06:56:51;;;;;;;9.45;2.40;;;;;;;-149.78;100.00;50471.44;4784823;29;20035;-68
2022/03/01 06:59:18;;;;;;;9.68;2.20;;;;;;;-149.78;100.00;50436.25;4787405;29;20039;-69
2022/03/01 07:01:44;;;;;;;18.13;2.97;;;;;;;-149.78;100.00;50432.31;4793996;29;20035;-69
2022/03/01 07:04:09;;;;;;;12.68;2.50;;;;;;;-149.78;100.00;50469.50;4795744;29;20035;-69
2022/03/01 07:06:35;;;;;;;13.05;2.85;;;;;;;-149.78;100.00;50459.72;4803066;29;20452;-69
2022/03/01 07:09:01;;;;;;;10.15;2.40;;;;;;;-149.78;100.00;50467.53;4787106;29;20397;-69
2022/03/01 07:11:26;;;;;;;7.65;2.40;;;;;;;-149.78;100.00;50451.88;4781997;29;20090;-69
2022/03/01 07:13:52;;;;;;;12.73;2.20;;;;;;;-149.78;100.00;50453.84;4800649;29;20138;-69
2022/03/01 07:16:18;;;;;;;11.27;2.47;;;;;;;-149.78;100.00;50467.53;4802783;29;20038;-69
2022/03/01 07:18:44;;;;;;;7.78;2.25;;;;;;;-149.78;100.00;50483.19;4784988;29;20046;-68
2022/03/01 07:21:10;;;;;;;8.07;2.35;;;;;;;-149.78;100.00;50451.88;4802876;29;20035;-69
2022/03/01 07:23:36;;;;;;;8.80;2.42;;;;;;;-149.78;100.00;50479.28;4805874;29;20042;-70
2022/03/01 07:26:04;;;;;;;7.78;2.35;;;;;;;-149.78;100.00;50475.34;4806036;29;20031;-70
2022/03/01 07:28:30;;;;;;;13.57;2.50;;;;;;;-149.78;100.00;50467.53;4794357;29;20393;-70
2022/03/01 07:30:57;;;;;;;8.00;2.53;;;;;;;-149.78;100.00;50432.31;4800281;29;20035;-70
2022/03/01 07:33:22;;;;;;;9.60;2.00;;;;;;;-149.78;100.00;50473.41;4789987;29;20043;-70
2022/03/01 07:35:48;;;;;;;14.57;2.45;;;;;;;-149.78;100.00;50469.50;4799904;29;20130;-70
2022/03/01 07:38:14;;;;;;;10.68;2.40;;;;;;;-149.78;100.00;50455.81;4805830;29;20038;-70
2022/03/01 07:40:39;;;;;;;10.20;2.40;;;;;;;-149.78;100.00;50430.38;4802841;29;20387;-70
2022/03/01 07:43:07;;;;;;;9.95;2.50;;;;;;;-149.78;100.00;50467.53;4769800;29;20047;-70
2022/03/01 07:45:35;;;;;;;11.07;2.40;;;;;;;-149.78;100.00;50408.84;4794751;29;20069;-71
2022/03/01 07:48:02;;;;;;;10.60;2.67;;;;;;;-149.78;100.00;50457.75;4810192;29;20079;-72
2022/03/01 07:50:29;;;;;;;9.48;2.28;;;;;;;-149.78;100.00;50481.22;4806550;29;20026;-72
2022/03/01 07:52:55;;;;;;;11.13;2.67;;;;;;;-149.78;100.00;50447.97;4823914;29;20046;-71
2022/03/01 07:55:22;;;;;;;15.68;2.70;;;;;;;-149.78;100.00;50408.84;4826658;29;20063;-73
2022/03/01 07:57:48;;;;;;;8.25;2.38;;;;;;;-149.78;100.00;50483.19;4799757;29;20049;-72
2022/03/01 08:00:14;;;;;;;8.18;2.90;;;;;;;-149.78;100.00;50426.47;4787640;29;20038;-72
2022/03/01 08:02:40;;;;;;;17.55;2.65;;;;;;;-149.78;100.00;50440.16;4791275;29;20413;-71
2022/03/01 08:05:07;;;;;;;13.43;2.65;;;;;;;-149.78;100.00;50451.88;4790207;29;20133;-70
2022/03/01 08:07:34;;;;;;;11.98;2.47;;;;;;;-149.78;100.00;50416.69;4791920;29;20398;-69
2022/03/01 08:10:00;;;;;;;11.85;2.75;;;;;;;-149.78;100.00;50401.03;4808970;29;20121;-70
2022/03/01 08:12:26;;;;;;;9.00;2.47;;;;;;;-149.78;100.00;50455.81;4792429;29;20104;-71
2022/03/01 08:14:52;;;;;;;12.23;2.58;;;;;;;-149.78;100.00;50424.50;4792836;29;20034;-69
2022/03/01 08:17:19;;;;;;;12.60;2.47;;;;;;;-149.78;100.00;50440.16;4776736;29;20038;-70
2022/03/01 08:19:46;;;;;;;9.18;2.25;;;;;;;-149.78;100.00;50404.94;4795278;29;20178;-70
2022/03/01 08:22:12;;;;;;;8.45;2.50;;;;;;;-149.78;100.00;50369.75;4801932;29;20042;-71
2022/03/01 08:24:38;;;;;;;11.30;2.72;;;;;;;-149.78;100.00;50369.75;4799010;29;20396;-70
2022/03/01 08:27:05;;;;;;;11.35;2.22;;;;;;;-149.78;100.00;50365.84;4793666;29;20507;-70
2022/03/01 08:29:31;;;;;;;8.05;2.33;;;;;;;-149.78;100.00;50371.69;4801294;29;20067;-70
2022/03/01 08:31:57;;;;;;;11.38;2.75;;;;;;;-149.78;100.00;50408.84;4803473;29;20038;-70
2022/03/01 08:34:23;;;;;;;12.35;2.97;;;;;;;-149.78;100.00;50365.84;4809483;29;20106;-70
2022/03/01 08:36:49;;;;;;;9.27;2.20;;;;;;;-149.78;100.00;50330.63;4794303;29;20380;-70
2022/03/01 08:39:15;;;;;;;11.38;2.22;;;;;;;-149.78;100.00;50356.06;4804764;29;20492;-69
2022/03/01 08:41:40;;;;;;;11.48;2.65;;;;;;;-149.78;100.00;50336.50;4790339;30;20051;-69
2022/03/01 08:44:07;;;;;;;10.48;2.10;;;;;;;-149.78;100.00;50299.34;4789619;30;20039;-69
2022/03/01 08:46:33;;;;;;;5.75;2.03;;;;;;;-149.78;100.00;50279.78;4808690;29;20046;-69
2022/03/01 08:48:59;;;;;;;11.48;3.53;;;;;;;-149.78;100.00;50330.63;4825895;29;20042;-70
2022/03/01 08:51:25;;;;;;;6.88;2.80;;;;;;;-149.78;100.00;50260.22;4826343;29;20046;-69
2022/03/01 08:53:53;;;;;;;9.00;2.50;;;;;;;-149.78;100.00;50270.00;4795016;29;20042;-69
2022/03/01 08:56:19;;;;;;;10.38;3.53;;;;;;;-149.78;100.00;50305.22;4826013;29;20066;-69
2022/03/01 08:58:47;;;;;;;11.65;3.33;;;;;;;-149.78;100.00;50268.03;4826240;29;20065;-69
2022/03/01 09:01:13;;;;;;;11.35;2.47;;;;;;;-149.78;100.00;50271.97;4812921;29;20030;-69
2022/03/01 09:03:39;;;;;;;8.68;2.83;;;;;;;-149.78;100.00;50260.22;4822017;29;20042;-69
2022/03/01 09:06:06;;;;;;;10.63;2.40;;;;;;;-149.78;100.00;50260.22;4826444;29;20398;-69
2022/03/01 09:08:33;;;;;;;11.18;2.33;;;;;;;-149.78;96.44;50256.31;4825795;29;20070;-69
2022/03/01 09:10:59;;;;;;;8.85;2.47;;;;;;;-149.78;86.31;50215.25;4826051;29;20030;-69
2022/03/01 09:13:24;;;;;;;10.13;2.55;;;;;;;-149.78;71.20;50170.25;4809841;29;20046;-69
2022/03/01 09:15:50;;;;;;;6.95;2.50;;;;;;;-149.78;68.55;50178.09;4825999;29;20038;-69
2022/03/01 09:18:15;;;;;;;8.20;2.35;;;;;;;-149.78;66.68;50183.97;4825907;29;20394;-69
2022/03/01 09:20:41;;;;;;;11.20;2.45;;;;;;;-149.78;67.69;50213.28;4825762;29;20038;-69
2022/03/01 09:23:08;;;;;;;5.32;2.05;;;;;;;-149.78;69.17;50221.13;4825966;29;20046;-69
2022/03/01 09:25:33;;;;;;;10.10;2.45;;;;;;;-149.78;73.56;50236.75;4825715;29;20058;-69
2022/03/01 09:27:59;;;;;;;7.53;2.40;;;;;;;-149.78;74.02;50248.50;4825634;29;20046;-69
2022/03/01 09:30:25;;;;;;;9.25;2.42;;;;;;;-149.78;70.23;50260.22;4802384;29;20040;-69
2022/03/01 09:32:50;;;;;;;7.90;2.05;;;;;;;-149.78;70.51;50250.44;4789695;30;20142;-69
2022/03/01 09:35:17;;;;;;;7.32;2.30;;;;;;;-149.78;68.49;50221.13;4788633;30;20487;-70
2022/03/01 09:37:44;;;;;;;9.73;2.20;;;;;;;-149.78;66.21;50217.19;4789476;30;20043;-69
2022/03/01 09:40:11;;;;;;;9.55;2.55;;;;;;;-149.78;66.98;50221.13;4789563;30;20076;-69
2022/03/01 09:42:39;;;;;;;9.18;2.65;;;;;;;-149.78;67.89;50240.66;4789540;30;20039;-69
2022/03/01 09:45:05;;;;;;;8.18;2.25;;;;;;;-149.78;67.51;50201.56;4795378;29;20375;-69
2022/03/01 09:47:31;;;;;;;7.88;2.38;;;;;;;-149.78;66.99;50230.88;4825475;29;20058;-69
2022/03/01 09:49:56;;;;;;;12.13;2.88;;;;;;;-149.78;69.86;50248.50;4794003;29;20042;-69
2022/03/01 09:52:22;;;;;;;9.30;2.47;;;;;;;-149.78;62.83;50264.13;4825492;29;20045;-69
2022/03/01 09:54:49;;;;;;;9.15;2.83;;;;;;;-149.78;62.07;50197.66;4808982;29;20043;-70
2022/03/01 09:57:17;;;;;;;8.00;3.05;;;;;;;-149.78;59.71;50205.47;4825123;29;20034;-70
2022/03/01 09:59:42;;;;;;;23.13;7.30;;;;;;;-149.78;61.03;50225.03;4799830;29;20054;-70
2022/03/01 10:02:09;;;;;;;11.20;3.50;;;;;;;-149.78;59.43;50197.66;4793987;29;20410;-70
2022/03/01 10:04:54;;;;;;;17.15;6.93;;;;;;;-149.78;58.29;50238.72;4825183;29;20039;-70
2022/03/01 10:07:28;;;;;;;12.80;4.95;;;;;;;-149.78;61.63;50205.47;4812052;29;20471;-70
2022/03/01 10:10:02;;;;;;;19.15;5.13;;;;;;;-149.78;61.38;50182.00;4787332;29;20067;-70
2022/03/01 10:12:29;;;;;;;10.45;2.70;;;;;;;-149.78;64.15;50244.59;4787795;30;20716;-70
2022/03/01 10:15:10;;;;;;;9.77;3.08;;;;;;;-149.78;63.36;50244.59;4803549;29;20072;-70
2022/03/01 10:17:37;;;;;;;11.35;4.80;;;;;;;-149.78;64.01;50248.50;4806120;29;20035;-71
2022/03/01 10:20:07;;;;;;;8.05;4.20;;;;;;;-149.78;64.84;50240.66;4787697;29;20126;-70
2022/03/01 10:22:33;;;;;;;9.68;4.05;;;;;;;-149.78;64.98;50246.53;4772646;30;20068;-70
2022/03/01 10:25:04;;;;;;;7.82;2.85;;;;;;;-149.78;60.74;50219.16;4787565;30;20081;-70
2022/03/01 10:27:31;;;;;;;8.90;2.87;;;;;;;-149.78;58.11;50201.56;4792992;29;20217;-70
2022/03/01 10:29:56;;;;;;;9.88;2.65;;;;;;;-149.78;55.58;50209.38;4791725;29;20303;-71
2022/03/01 10:32:22;;;;;;;12.70;3.83;;;;;;;-149.78;53.64;50154.63;4796294;29;20030;-70
2022/03/01 10:35:03;;;;;;;12.77;3.72;;;;;;;-149.78;56.32;50223.06;4806447;29;20071;-70
2022/03/01 10:37:32;;;;;;;11.57;2.53;;;;;;;-149.78;56.46;50182.00;4803454;29;20509;-70
2022/03/01 10:40:19;;;;;;;8.27;3.17;;;;;;;-149.78;57.04;50219.16;4806591;29;20073;-70
2022/03/01 10:42:57;;;;;;;10.93;3.20;;;;;;;-149.78;58.88;50142.88;4806496;29;20050;-70
2022/03/01 10:45:33;;;;;;;9.10;3.38;;;;;;;-149.78;58.81;50205.47;4802698;29;20039;-69
2022/03/01 10:47:59;;;;;;;7.47;3.08;;;;;;;-149.78;66.58;50228.94;4788444;30;20042;-69
2022/03/01 10:50:25;;;;;;;9.00;3.15;;;;;;;-149.78;64.47;50236.75;4787228;30;20039;-70
2022/03/01 10:52:50;;;;;;;8.48;3.17;;;;;;;-149.78;63.29;50256.31;4788196;30;20043;-70
2022/03/01 10:55:35;;;;;;;12.63;3.28;;;;;;;-149.78;63.30;50258.28;4787132;29;20043;-71
2022/03/01 10:58:12;;;;;;;14.02;3.55;;;;;;;-149.78;64.93;50252.41;4805095;29;20046;-69
2022/03/01 11:00:39;;;;;;;11.40;3.45;;;;;;;-149.78;64.93;50242.63;4806087;29;20038;-68
2022/03/01 11:03:06;;;;;;;11.10;3.38;;;;;;;-149.78;66.80;50262.19;4816349;29;20061;-70
2022/03/01 11:05:33;;;;;;;11.13;3.53;;;;;;;-149.78;65.68;50248.50;4823346;29;20042;-70